createdAt,value
2018-03-07T00:01:17.378Z,260.13
2018-03-07T00:03:45.651Z,229.57
2018-03-07T00:06:13.943Z,244.83
2018-03-07T00:08:42.289Z,233.13
2018-03-07T00:11:11.273Z,246.60
2018-03-07T00:13:40.254Z,232.73
2018-03-07T00:16:09.472Z,246.23
2018-03-07T00:18:37.689Z,264.50
2018-03-07T00:21:05.934Z,255.03
2018-03-07T00:23:34.302Z,244.33
2018-03-07T00:26:02.554Z,264.13
2018-03-07T00:34:34.297Z,198.77
2018-03-07T00:37:02.515Z,217.03
2018-03-07T00:39:31.566Z,225.80
2018-03-07T00:41:59.916Z,235.30
2018-03-07T00:44:28.147Z,229.03
2018-03-07T00:46:56.369Z,224.80
2018-03-07T00:49:24.620Z,225.40
2018-03-07T00:51:53.603Z,223.97
2018-03-07T00:54:22.600Z,217.87
2018-03-07T00:57:17.684Z,220.17
2018-03-07T01:00:16.729Z,222.10
2018-03-07T01:02:45.030Z,186.13
2018-03-07T01:05:19.365Z,192.07
2018-03-07T01:07:47.639Z,193.87
2018-03-07T01:10:19.081Z,171.80
2018-03-07T01:12:47.452Z,177.97
2018-03-07T01:15:15.674Z,192.07
2018-03-07T01:17:44.740Z,171.37
2018-03-07T01:20:13.821Z,187.43
2018-03-07T01:22:42.040Z,156.23
2018-03-07T01:25:18.534Z,162.50
2018-03-07T01:27:46.752Z,161.33
2018-03-07T01:30:14.989Z,152.77
2018-03-07T01:32:43.253Z,151.33
2018-03-07T01:35:11.607Z,148.37
2018-03-07T01:37:40.620Z,146.90
2018-03-07T01:40:18.826Z,126.60
2018-03-07T01:43:17.527Z,138.90
2018-03-07T01:45:45.816Z,122.73
2018-03-07T01:48:20.334Z,127.10
2018-03-07T01:50:48.607Z,139.63
2018-03-07T01:53:16.816Z,120.90
2018-03-07T01:55:45.141Z,122.17
2018-03-07T01:58:13.380Z,115.43
2018-03-07T02:00:42.204Z,101.43
2018-03-07T02:03:10.411Z,105.20
2018-03-07T02:05:38.650Z,103.77
2018-03-07T02:08:20.027Z,100.93
2018-03-07T02:11:17.024Z,105.17
2018-03-07T02:13:45.251Z,87.67
2018-03-07T02:16:19.777Z,86.73
2018-03-07T02:18:48.003Z,94.63
2018-03-07T02:21:16.266Z,85.37
2018-03-07T02:23:44.614Z,88.57
2018-03-07T02:26:12.828Z,81.37
2018-03-07T02:28:41.057Z,79.80
2018-03-07T02:31:09.382Z,86.50
2018-03-07T02:33:37.610Z,89.83
2018-03-07T02:36:25.085Z,87.83
2018-03-07T02:39:17.452Z,89.17
2018-03-07T02:41:46.576Z,87.37
2018-03-07T02:44:20.697Z,78.40
2018-03-07T02:46:48.958Z,74.70
2018-03-07T02:49:17.178Z,77.57
2018-03-07T02:51:46.221Z,75.00
2018-03-07T02:54:14.502Z,71.43
2018-03-07T02:56:42.726Z,71.53
2018-03-07T02:59:11.058Z,64.73
2018-03-07T03:01:39.418Z,64.47
2018-03-07T03:04:20.061Z,70.37
2018-03-07T03:07:17.092Z,63.20
2018-03-07T03:09:45.299Z,58.17
2018-03-07T03:12:20.068Z,60.20
2018-03-07T03:14:48.317Z,63.93
2018-03-07T03:17:16.539Z,63.10
2018-03-07T03:19:44.799Z,59.90
2018-03-07T03:22:13.041Z,57.27
2018-03-07T03:24:41.301Z,58.57
2018-03-07T03:27:10.411Z,58.10
2018-03-07T03:29:38.634Z,65.67
2018-03-07T03:32:06.972Z,59.03
2018-03-07T03:34:35.229Z,65.83
2018-03-07T03:37:03.477Z,67.87
2018-03-07T03:39:31.689Z,59.40
2018-03-07T03:41:59.950Z,60.63
2018-03-07T03:44:28.731Z,64.23
2018-03-07T03:47:17.211Z,66.87
2018-03-07T03:49:45.433Z,66.07
2018-03-07T03:52:13.732Z,58.43
2018-03-07T03:54:42.744Z,58.33
2018-03-07T03:57:10.990Z,64.57
2018-03-07T03:59:40.624Z,69.07
2018-03-07T04:02:08.886Z,65.37
2018-03-07T04:04:37.115Z,60.00
2018-03-07T04:07:05.328Z,69.43
2018-03-07T04:09:34.441Z,66.83
2018-03-07T04:12:02.658Z,62.33
2018-03-07T04:14:30.866Z,74.47
2018-03-07T04:16:59.875Z,66.03
2018-03-07T04:19:28.182Z,64.20
2018-03-07T04:21:56.434Z,56.40
2018-03-07T04:24:24.687Z,69.47
2018-03-07T04:26:53.707Z,64.00
2018-03-07T04:29:21.975Z,58.37
2018-03-07T04:31:50.246Z,63.43
2018-03-07T04:34:18.553Z,72.97
2018-03-07T04:36:46.785Z,75.60
2018-03-07T04:39:15.890Z,73.70
2018-03-07T04:41:44.165Z,73.43
2018-03-07T04:44:12.376Z,70.43
2018-03-07T04:46:40.629Z,66.43
2018-03-07T04:49:08.840Z,63.73
2018-03-07T04:51:37.065Z,68.73
2018-03-07T04:54:06.339Z,67.53
2018-03-07T04:56:35.469Z,75.80
2018-03-07T04:59:17.866Z,72.67
2018-03-07T05:01:46.083Z,63.80
2018-03-07T05:04:14.308Z,65.30
2018-03-07T05:06:42.551Z,76.00
2018-03-07T05:09:10.856Z,74.33
2018-03-07T05:11:39.069Z,66.53
2018-03-07T05:14:07.318Z,71.00
2018-03-07T05:16:35.528Z,68.20
2018-03-07T05:19:03.742Z,66.73
2018-03-07T05:21:32.760Z,64.47
2018-03-07T05:24:00.978Z,59.37
2018-03-07T05:29:45.092Z,68.70
2018-03-07T05:32:13.297Z,70.80
2018-03-07T05:34:41.517Z,60.37
2018-03-07T05:37:10.559Z,79.20
2018-03-07T05:39:38.809Z,81.67
2018-03-07T05:42:07.117Z,68.30
2018-03-07T05:44:35.373Z,74.80
2018-03-07T05:47:04.487Z,77.73
2018-03-07T05:49:33.558Z,66.17
2018-03-07T05:52:01.842Z,75.10
2018-03-07T05:54:30.076Z,79.53
2018-03-07T05:56:58.325Z,71.77
2018-03-07T05:59:26.584Z,74.37
2018-03-07T06:01:54.825Z,73.80
2018-03-07T06:04:23.054Z,60.07
2018-03-07T06:07:17.724Z,63.67
2018-03-07T06:09:45.954Z,67.17
2018-03-07T06:12:14.940Z,62.83
2018-03-07T06:14:44.040Z,63.00
2018-03-07T06:17:13.161Z,62.33
2018-03-07T06:19:41.563Z,67.53
2018-03-07T06:22:09.813Z,68.93
2018-03-07T06:24:38.746Z,67.60
2018-03-07T06:27:07.066Z,72.70
2018-03-07T06:29:35.329Z,72.60
2018-03-07T06:32:04.310Z,73.40
2018-03-07T06:37:33.487Z,69.97
2018-03-07T06:40:01.721Z,60.60
2018-03-07T06:42:30.039Z,65.10
2018-03-07T06:44:58.383Z,68.90
2018-03-07T06:47:26.648Z,75.83
2018-03-07T06:51:38.631Z,73.87
2018-03-07T06:54:06.951Z,71.03
2018-03-07T06:56:35.196Z,68.97
2018-03-07T06:59:04.215Z,71.50
2018-03-07T07:04:18.929Z,77.53
2018-03-07T07:07:17.368Z,63.27
2018-03-07T07:12:46.407Z,73.90
2018-03-07T07:21:20.251Z,70.80
2018-03-07T07:24:18.657Z,70.13
2018-03-07T07:27:17.686Z,75.60
2018-03-07T07:33:17.593Z,73.10
2018-03-07T07:41:45.925Z,68.43
2018-03-07T07:44:20.893Z,76.23
2018-03-07T07:47:17.078Z,84.33
2018-03-07T07:52:45.189Z,75.73
2018-03-07T07:55:14.884Z,76.17
2018-03-07T07:57:43.920Z,72.03
2018-03-07T08:00:12.312Z,85.33
2018-03-07T08:02:40.562Z,83.67
2018-03-07T08:05:08.794Z,87.00
2018-03-07T08:07:37.138Z,78.40
2018-03-07T08:10:17.850Z,74.13
2018-03-07T08:13:17.210Z,89.97
2018-03-07T08:19:16.847Z,82.07
2018-03-07T08:31:17.041Z,78.47
2018-03-07T08:40:17.305Z,71.77
2018-03-07T08:46:17.301Z,72.57
2018-03-07T08:58:16.574Z,89.77
2018-03-07T09:10:16.701Z,86.47
2018-03-07T09:31:16.957Z,85.10
2018-03-07T09:37:16.967Z,111.93
2018-03-07T09:46:17.417Z,103.90
2018-03-07T09:52:17.246Z,94.93
2018-03-07T10:01:17.224Z,100.53
2018-03-07T10:07:16.860Z,110.70
2018-03-07T10:16:17.359Z,108.80
2018-03-07T10:22:16.690Z,101.00
2018-03-07T10:31:17.490Z,102.00
2018-03-07T10:40:17.052Z,96.53
2018-03-07T10:52:17.315Z,87.87
2018-03-07T10:58:17.258Z,86.57
2018-03-07T11:04:16.958Z,70.60
2018-03-07T11:13:17.477Z,59.27
2018-03-07T11:25:16.802Z,54.30
2018-03-07T11:34:17.596Z,49.13
2018-03-07T11:46:16.664Z,61.33
2018-03-07T11:55:17.453Z,52.07
2018-03-07T12:04:18.008Z,52.13
2018-03-07T12:09:46.322Z,49.73
2018-03-07T12:12:20.881Z,59.73
2018-03-07T12:15:16.656Z,50.67
2018-03-07T12:17:44.882Z,55.80
2018-03-07T12:20:19.505Z,55.07
2018-03-07T12:22:47.712Z,56.40
2018-03-07T12:31:19.441Z,58.53
2018-03-07T12:34:16.991Z,68.20
2018-03-07T12:40:09.406Z,69.80
2018-03-07T13:34:17.307Z,64.27
2018-03-07T13:39:59.041Z,52.23
2018-03-07T13:42:27.267Z,52.53
2018-03-07T13:45:18.316Z,47.50
2018-03-07T14:57:17.200Z,30.07
2018-03-07T15:09:17.463Z,34.00
2018-03-07T15:21:17.345Z,31.23
2018-03-07T15:33:17.627Z,30.77
2018-03-07T15:39:17.196Z,29.07
2018-03-07T15:48:17.562Z,28.00
2018-03-07T15:54:17.370Z,54.63
2018-03-07T16:00:17.239Z,20.90
2018-03-07T16:09:17.043Z,24.17
2018-03-07T16:24:17.205Z,43.53
2018-03-07T16:42:17.073Z,66.57
2018-03-07T16:51:17.728Z,63.07
2018-03-07T16:57:17.673Z,58.80
2018-03-07T17:00:17.467Z,55.23
2018-03-07T17:05:29.667Z,83.17
2018-03-07T17:11:17.984Z,71.20
2018-03-07T17:20:17.977Z,71.97
2018-03-07T17:29:17.616Z,78.70
2018-03-07T17:35:17.333Z,90.63
2018-03-07T17:41:17.042Z,90.57
2018-03-07T17:50:17.728Z,110.80
2018-03-07T17:56:17.484Z,109.47
2018-03-07T18:05:17.042Z,114.10
2018-03-07T18:20:18.572Z,120.27
2018-03-07T18:23:17.476Z,132.37
2018-03-07T18:32:17.461Z,133.20
2018-03-07T18:34:46.104Z,140.33
2018-03-07T18:55:17.737Z,143.27
2018-03-07T19:01:17.545Z,148.30
2018-03-07T19:03:45.771Z,131.43
2018-03-07T19:06:14.782Z,131.27
2018-03-07T19:08:43.292Z,124.67
2018-03-07T19:11:18.806Z,122.07
2018-03-07T19:17:17.580Z,130.60
2018-03-07T19:32:17.156Z,130.80
2018-03-07T19:38:17.035Z,138.10
2018-03-07T20:07:43.445Z,128.17
2018-03-07T20:10:19.067Z,125.90
2018-03-07T20:13:17.959Z,139.33
2018-03-07T20:16:17.186Z,122.50
2018-03-07T20:25:16.882Z,139.97
2018-03-07T20:34:17.742Z,128.97
2018-03-07T20:49:17.562Z,140.53
2018-03-07T20:51:46.554Z,132.20
2018-03-07T20:54:14.805Z,130.37
2018-03-07T20:56:43.108Z,118.97
2018-03-07T20:59:11.353Z,130.47
2018-03-07T21:01:39.569Z,119.23
2018-03-07T21:04:08.608Z,117.20
2018-03-07T21:06:36.825Z,116.13
2018-03-07T21:09:05.155Z,118.70
2018-03-07T21:11:33.400Z,124.07
2018-03-07T21:14:02.413Z,132.73
2018-03-07T21:16:30.699Z,109.77
2018-03-07T21:18:58.926Z,118.13
2018-03-07T21:21:27.937Z,111.27
2018-03-07T21:23:56.998Z,113.67
2018-03-07T21:26:25.225Z,109.33
2018-03-07T21:28:53.539Z,125.50
2018-03-07T21:31:21.827Z,115.60
2018-03-07T21:33:50.051Z,127.93
2018-03-07T21:36:18.353Z,132.83
2018-03-07T21:38:46.696Z,123.90
2018-03-07T21:41:14.901Z,125.43
2018-03-07T21:43:43.151Z,112.83
2018-03-07T21:46:11.530Z,101.37
2018-03-07T21:48:39.814Z,114.80
2018-03-07T21:51:08.076Z,108.47
2018-03-07T21:53:36.466Z,106.93
2018-03-07T21:56:04.682Z,92.67
2018-03-07T21:58:32.892Z,97.60
2018-03-07T22:01:01.302Z,104.13
2018-03-07T22:03:29.520Z,101.43
2018-03-07T22:05:57.726Z,100.67
2018-03-07T22:08:25.974Z,101.93
2018-03-07T22:10:54.277Z,116.77
2018-03-07T22:13:22.604Z,100.57
2018-03-07T22:15:50.936Z,110.43
2018-03-07T22:18:19.254Z,103.97
2018-03-07T22:20:47.593Z,114.47
2018-03-07T22:23:15.847Z,118.03
2018-03-07T22:25:44.848Z,104.27
2018-03-07T22:28:13.135Z,116.13
2018-03-07T22:30:41.440Z,114.00
2018-03-07T22:33:09.854Z,109.30
2018-03-07T22:35:38.305Z,114.33
2018-03-07T22:38:06.514Z,105.20
2018-03-07T22:40:35.548Z,98.87
2018-03-07T22:43:03.774Z,88.20
2018-03-07T22:45:32.027Z,102.10
2018-03-07T22:48:00.242Z,89.33
2018-03-07T22:50:29.901Z,94.00
2018-03-07T22:52:58.257Z,93.80
2018-03-07T22:55:26.509Z,82.80
2018-03-07T22:57:55.609Z,81.20
2018-03-07T23:00:29.420Z,76.53
2018-03-07T23:02:57.788Z,85.40
2018-03-07T23:05:26.008Z,81.47
2018-03-07T23:07:54.235Z,74.87
2018-03-07T23:10:22.513Z,82.70
2018-03-07T23:12:50.783Z,85.03
2018-03-07T23:15:19.761Z,72.97
2018-03-07T23:17:48.773Z,72.67
2018-03-07T23:20:17.058Z,86.50
2018-03-07T23:22:45.951Z,80.80
2018-03-07T23:25:14.234Z,81.03
2018-03-07T23:27:42.499Z,74.97
2018-03-07T23:30:10.738Z,82.00
2018-03-07T23:32:39.766Z,84.83
2018-03-07T23:35:08.024Z,81.07
2018-03-07T23:37:37.029Z,85.90
2018-03-07T23:40:05.235Z,80.13
2018-03-07T23:42:33.590Z,77.93
2018-03-07T23:45:01.844Z,84.97
2018-03-07T23:47:30.883Z,86.13
2018-03-07T23:50:19.095Z,88.23
2018-03-07T23:52:47.361Z,85.03
2018-03-07T23:55:15.567Z,87.87
2018-03-07T23:57:43.798Z,87.60
